sensor_id;sensor_type;location;lat;lon;timestamp;pressure;altitude;pressure_sealevel;temperature;humidity
17311;BME280;8773;43.300;0.394;2023-05-21T00:00:30;99594.47;;;15.00;57.91
17311;BME280;8773;43.300;0.394;2023-05-21T00:02:57;99591.78;;;15.00;58.32
17311;BME280;8773;43.300;0.394;2023-05-21T00:05:25;99587.34;;;14.93;58.17
17311;BME280;8773;43.300;0.394;2023-05-21T00:07:53;99582.44;;;14.82;59.11
17311;BME280;8773;43.300;0.394;2023-05-21T00:10:21;99585.13;;;14.82;58.81
17311;BME280;8773;43.300;0.394;2023-05-21T00:12:49;99582.00;;;14.78;59.22
17311;BME280;8773;43.300;0.394;2023-05-21T00:15:16;99584.03;;;14.76;59.35
17311;BME280;8773;43.300;0.394;2023-05-21T00:17:44;99583.38;;;14.74;59.21
17311;BME280;8773;43.300;0.394;2023-05-21T00:20:11;99583.84;;;14.78;59.46
17311;BME280;8773;43.300;0.394;2023-05-21T00:22:39;99580.31;;;14.77;59.23
17311;BME280;8773;43.300;0.394;2023-05-21T00:25:07;99578.25;;;14.64;59.63
17311;BME280;8773;43.300;0.394;2023-05-21T00:27:36;99579.56;;;14.54;60.78
17311;BME280;8773;43.300;0.394;2023-05-21T00:30:05;99586.34;;;14.50;60.89
17311;BME280;8773;43.300;0.394;2023-05-21T00:32:33;99575.13;;;14.46;60.74
17311;BME280;8773;43.300;0.394;2023-05-21T00:35:04;99581.41;;;14.38;61.05
17311;BME280;8773;43.300;0.394;2023-05-21T00:37:32;99578.50;;;14.25;61.78
17311;BME280;8773;43.300;0.394;2023-05-21T00:39:59;99576.47;;;14.27;61.67
17311;BME280;8773;43.300;0.394;2023-05-21T00:42:27;99568.59;;;14.26;61.86
17311;BME280;8773;43.300;0.394;2023-05-21T00:44:56;99566.44;;;13.92;62.66
17311;BME280;8773;43.300;0.394;2023-05-21T00:47:23;99564.53;;;13.78;63.22
17311;BME280;8773;43.300;0.394;2023-05-21T00:49:51;99564.06;;;13.74;63.62
17311;BME280;8773;43.300;0.394;2023-05-21T00:52:19;99566.25;;;13.48;64.29
17311;BME280;8773;43.300;0.394;2023-05-21T00:54:48;99564.81;;;13.14;65.68
17311;BME280;8773;43.300;0.394;2023-05-21T00:57:16;99572.13;;;12.89;66.75
17311;BME280;8773;43.300;0.394;2023-05-21T00:59:44;99577.81;;;12.94;66.80
17311;BME280;8773;43.300;0.394;2023-05-21T01:02:14;99576.13;;;12.93;66.42
17311;BME280;8773;43.300;0.394;2023-05-21T01:04:42;99579.44;;;13.03;66.39
17311;BME280;8773;43.300;0.394;2023-05-21T01:07:09;99574.94;;;12.96;66.77
17311;BME280;8773;43.300;0.394;2023-05-21T01:09:37;99580.16;;;12.89;66.87
17311;BME280;8773;43.300;0.394;2023-05-21T01:12:05;99577.81;;;12.94;66.98
17311;BME280;8773;43.300;0.394;2023-05-21T01:14:35;99573.41;;;13.01;66.59
17311;BME280;8773;43.300;0.394;2023-05-21T01:17:04;99568.97;;;12.86;67.66
17311;BME280;8773;43.300;0.394;2023-05-21T01:19:34;99576.28;;;13.00;66.81
17311;BME280;8773;43.300;0.394;2023-05-21T01:22:04;99572.41;;;12.71;67.66
17311;BME280;8773;43.300;0.394;2023-05-21T01:24:33;99579.91;;;12.76;68.01
17311;BME280;8773;43.300;0.394;2023-05-21T01:27:02;99578.31;;;12.90;67.40
17311;BME280;8773;43.300;0.394;2023-05-21T01:29:29;99575.44;;;12.99;66.91
17311;BME280;8773;43.300;0.394;2023-05-21T01:32:04;99570.47;;;12.88;67.56
17311;BME280;8773;43.300;0.394;2023-05-21T01:34:39;99578.16;;;12.91;67.56
17311;BME280;8773;43.300;0.394;2023-05-21T01:37:13;99578.25;;;12.75;68.03
17311;BME280;8773;43.300;0.394;2023-05-21T01:39:51;99575.31;;;12.93;67.87
17311;BME280;8773;43.300;0.394;2023-05-21T01:42:21;99574.63;;;12.91;67.71
17311;BME280;8773;43.300;0.394;2023-05-21T01:44:54;99577.84;;;12.86;68.34
17311;BME280;8773;43.300;0.394;2023-05-21T01:47:22;99568.91;;;13.02;67.99
17311;BME280;8773;43.300;0.394;2023-05-21T01:49:50;99566.25;;;13.25;67.05
17311;BME280;8773;43.300;0.394;2023-05-21T01:52:17;99568.94;;;13.25;66.74
17311;BME280;8773;43.300;0.394;2023-05-21T01:54:46;99560.16;;;13.31;66.86
17311;BME280;8773;43.300;0.394;2023-05-21T01:57:14;99562.44;;;13.42;66.53
17311;BME280;8773;43.300;0.394;2023-05-21T01:59:41;99567.03;;;13.56;65.99
17311;BME280;8773;43.300;0.394;2023-05-21T02:02:09;99568.00;;;13.63;66.14
17311;BME280;8773;43.300;0.394;2023-05-21T02:04:36;99567.66;;;13.66;65.98
17311;BME280;8773;43.300;0.394;2023-05-21T02:07:04;99565.91;;;13.73;65.68
17311;BME280;8773;43.300;0.394;2023-05-21T02:09:31;99567.75;;;13.73;65.47
17311;BME280;8773;43.300;0.394;2023-05-21T02:12:01;99569.34;;;13.67;65.81
17311;BME280;8773;43.300;0.394;2023-05-21T02:14:29;99563.34;;;13.57;65.85
17311;BME280;8773;43.300;0.394;2023-05-21T02:16:56;99562.50;;;13.57;66.08
17311;BME280;8773;43.300;0.394;2023-05-21T02:19:24;99568.06;;;13.55;65.65
17311;BME280;8773;43.300;0.394;2023-05-21T02:21:51;99575.72;;;13.66;65.60
17311;BME280;8773;43.300;0.394;2023-05-21T02:24:19;99564.06;;;13.74;65.18
17311;BME280;8773;43.300;0.394;2023-05-21T02:26:47;99562.16;;;13.60;65.58
17311;BME280;8773;43.300;0.394;2023-05-21T02:29:16;99565.66;;;13.37;66.56
17311;BME280;8773;43.300;0.394;2023-05-21T02:31:43;99567.50;;;13.37;66.67
17311;BME280;8773;43.300;0.394;2023-05-21T02:34:10;99564.63;;;13.38;66.50
17311;BME280;8773;43.300;0.394;2023-05-21T02:36:38;99558.97;;;13.11;67.29
17311;BME280;8773;43.300;0.394;2023-05-21T02:39:05;99561.59;;;12.88;67.75
17311;BME280;8773;43.300;0.394;2023-05-21T02:41:33;99574.75;;;13.05;67.02
17311;BME280;8773;43.300;0.394;2023-05-21T02:44:00;99562.25;;;12.90;67.67
17311;BME280;8773;43.300;0.394;2023-05-21T02:46:29;99569.09;;;12.92;67.52
17311;BME280;8773;43.300;0.394;2023-05-21T02:48:56;99564.44;;;12.86;67.49
17311;BME280;8773;43.300;0.394;2023-05-21T02:51:24;99560.56;;;12.89;66.94
17311;BME280;8773;43.300;0.394;2023-05-21T02:53:51;99562.00;;;12.77;67.39
17311;BME280;8773;43.300;0.394;2023-05-21T02:56:19;99564.53;;;12.70;68.29
17311;BME280;8773;43.300;0.394;2023-05-21T02:58:46;99556.47;;;12.78;67.45
17311;BME280;8773;43.300;0.394;2023-05-21T03:01:14;99550.97;;;12.71;68.10
17311;BME280;8773;43.300;0.394;2023-05-21T03:03:42;99553.09;;;12.37;69.17
17311;BME280;8773;43.300;0.394;2023-05-21T03:06:10;99557.94;;;12.25;69.12
17311;BME280;8773;43.300;0.394;2023-05-21T03:08:37;99561.47;;;12.18;69.70
17311;BME280;8773;43.300;0.394;2023-05-21T03:11:05;99558.81;;;12.09;70.29
17311;BME280;8773;43.300;0.394;2023-05-21T03:13:32;99562.00;;;12.13;69.41
17311;BME280;8773;43.300;0.394;2023-05-21T03:16:00;99562.00;;;12.13;69.49
17311;BME280;8773;43.300;0.394;2023-05-21T03:18:27;99562.66;;;12.15;69.55
17311;BME280;8773;43.300;0.394;2023-05-21T03:20:56;99565.81;;;12.19;69.30
17311;BME280;8773;43.300;0.394;2023-05-21T03:23:23;99558.66;;;12.11;69.46
17311;BME280;8773;43.300;0.394;2023-05-21T03:25:51;99561.19;;;11.88;70.23
17311;BME280;8773;43.300;0.394;2023-05-21T03:28:18;99559.66;;;12.02;69.74
17311;BME280;8773;43.300;0.394;2023-05-21T03:30:46;99562.38;;;11.94;70.65
17311;BME280;8773;43.300;0.394;2023-05-21T03:33:13;99567.00;;;12.16;69.57
17311;BME280;8773;43.300;0.394;2023-05-21T03:35:41;99552.50;;;11.94;69.63
17311;BME280;8773;43.300;0.394;2023-05-21T03:38:10;99558.81;;;12.09;69.95
17311;BME280;8773;43.300;0.394;2023-05-21T03:40:40;99558.97;;;12.16;69.29
17311;BME280;8773;43.300;0.394;2023-05-21T03:43:07;99563.97;;;12.19;68.96
17311;BME280;8773;43.300;0.394;2023-05-21T03:45:34;99556.09;;;12.34;69.25
17311;BME280;8773;43.300;0.394;2023-05-21T03:48:03;99561.97;;;12.21;68.69
17311;BME280;8773;43.300;0.394;2023-05-21T03:50:30;99556.47;;;12.23;69.36
17311;BME280;8773;43.300;0.394;2023-05-21T03:52:58;99568.00;;;12.23;69.14
17311;BME280;8773;43.300;0.394;2023-05-21T03:55:27;99566.50;;;12.21;69.05
17311;BME280;8773;43.300;0.394;2023-05-21T03:57:54;99563.97;;;12.27;68.47
17311;BME280;8773;43.300;0.394;2023-05-21T04:00:21;99562.81;;;12.30;69.00
17311;BME280;8773;43.300;0.394;2023-05-21T04:02:49;99566.47;;;12.29;68.67
17311;BME280;8773;43.300;0.394;2023-05-21T04:05:16;99565.34;;;12.15;68.67
17311;BME280;8773;43.300;0.394;2023-05-21T04:07:44;99563.31;;;12.17;68.29
17311;BME280;8773;43.300;0.394;2023-05-21T04:10:11;99563.16;;;12.11;68.58
17311;BME280;8773;43.300;0.394;2023-05-21T04:12:40;99572.06;;;11.70;70.94
17311;BME280;8773;43.300;0.394;2023-05-21T04:15:08;99561.88;;;11.74;70.51
17311;BME280;8773;43.300;0.394;2023-05-21T04:17:35;99567.38;;;11.81;70.72
17311;BME280;8773;43.300;0.394;2023-05-21T04:20:04;99562.38;;;11.78;70.51
17311;BME280;8773;43.300;0.394;2023-05-21T04:22:32;99563.03;;;11.80;70.62
17311;BME280;8773;43.300;0.394;2023-05-21T04:24:59;99571.22;;;11.86;69.72
17311;BME280;8773;43.300;0.394;2023-05-21T04:27:27;99568.56;;;11.78;70.35
17311;BME280;8773;43.300;0.394;2023-05-21T04:29:56;99575.56;;;11.55;70.42
17311;BME280;8773;43.300;0.394;2023-05-21T04:32:23;99572.66;;;11.24;72.02
17311;BME280;8773;43.300;0.394;2023-05-21T04:34:50;99580.28;;;11.10;72.42
17311;BME280;8773;43.300;0.394;2023-05-21T04:37:18;99580.13;;;10.96;73.49
17311;BME280;8773;43.300;0.394;2023-05-21T04:39:45;99593.63;;;10.94;73.40
17311;BME280;8773;43.300;0.394;2023-05-21T04:42:13;99592.53;;;11.21;72.96
17311;BME280;8773;43.300;0.394;2023-05-21T04:44:40;99585.72;;;11.27;71.94
17311;BME280;8773;43.300;0.394;2023-05-21T04:47:09;99590.28;;;11.51;71.32
17311;BME280;8773;43.300;0.394;2023-05-21T04:49:37;99589.44;;;11.66;71.73
17311;BME280;8773;43.300;0.394;2023-05-21T04:52:04;99584.94;;;11.83;70.57
17311;BME280;8773;43.300;0.394;2023-05-21T04:54:32;99584.78;;;11.85;70.07
17311;BME280;8773;43.300;0.394;2023-05-21T04:56:59;99588.63;;;11.90;69.77
17311;BME280;8773;43.300;0.394;2023-05-21T04:59:26;99588.13;;;11.95;69.91
17311;BME280;8773;43.300;0.394;2023-05-21T05:01:54;99585.75;;;12.00;69.88
17311;BME280;8773;43.300;0.394;2023-05-21T05:04:23;99590.13;;;11.77;69.64
17311;BME280;8773;43.300;0.394;2023-05-21T05:06:50;99588.44;;;11.75;69.81
17311;BME280;8773;43.300;0.394;2023-05-21T05:09:18;99587.94;;;11.80;69.96
17311;BME280;8773;43.300;0.394;2023-05-21T05:11:45;99598.81;;;11.70;69.67
17311;BME280;8773;43.300;0.394;2023-05-21T05:14:15;99594.13;;;11.72;69.50
17311;BME280;8773;43.300;0.394;2023-05-21T05:16:43;99587.44;;;11.93;69.41
17311;BME280;8773;43.300;0.394;2023-05-21T05:19:10;99583.75;;;12.10;69.20
17311;BME280;8773;43.300;0.394;2023-05-21T05:21:39;99587.50;;;12.40;68.27
17311;BME280;8773;43.300;0.394;2023-05-21T05:24:06;99589.84;;;12.59;67.97
17311;BME280;8773;43.300;0.394;2023-05-21T05:26:34;99591.50;;;12.68;66.74
17311;BME280;8773;43.300;0.394;2023-05-21T05:29:01;99588.47;;;12.71;66.74
17311;BME280;8773;43.300;0.394;2023-05-21T05:31:32;99580.22;;;12.81;65.93
17311;BME280;8773;43.300;0.394;2023-05-21T05:33:59;99576.56;;;12.74;65.93
17311;BME280;8773;43.300;0.394;2023-05-21T05:36:27;99569.34;;;12.83;65.62
17311;BME280;8773;43.300;0.394;2023-05-21T05:38:56;99578.78;;;13.01;65.47
17311;BME280;8773;43.300;0.394;2023-05-21T05:41:23;99586.53;;;12.88;65.49
17311;BME280;8773;43.300;0.394;2023-05-21T05:43:50;99586.00;;;12.54;65.71
17311;BME280;8773;43.300;0.394;2023-05-21T05:46:18;99594.03;;;12.62;66.16
17311;BME280;8773;43.300;0.394;2023-05-21T05:48:45;99594.09;;;12.85;65.67
17311;BME280;8773;43.300;0.394;2023-05-21T05:51:13;99582.44;;;13.08;65.72
17311;BME280;8773;43.300;0.394;2023-05-21T05:53:43;99576.69;;;13.43;64.22
17311;BME280;8773;43.300;0.394;2023-05-21T05:56:11;99582.78;;;13.59;63.74
17311;BME280;8773;43.300;0.394;2023-05-21T05:58:39;99584.44;;;13.60;63.45
17311;BME280;8773;43.300;0.394;2023-05-21T06:01:06;99582.00;;;13.73;62.74
17311;BME280;8773;43.300;0.394;2023-05-21T06:03:34;99586.00;;;13.78;62.59
17311;BME280;8773;43.300;0.394;2023-05-21T06:06:01;99578.72;;;13.63;62.47
17311;BME280;8773;43.300;0.394;2023-05-21T06:08:29;99583.84;;;13.96;62.18
17311;BME280;8773;43.300;0.394;2023-05-21T06:10:56;99576.19;;;14.22;61.39
17311;BME280;8773;43.300;0.394;2023-05-21T06:13:25;99570.94;;;14.73;60.23
17311;BME280;8773;43.300;0.394;2023-05-21T06:15:53;99563.69;;;15.39;58.16
17311;BME280;8773;43.300;0.394;2023-05-21T06:18:20;99559.28;;;16.30;56.13
17311;BME280;8773;43.300;0.394;2023-05-21T06:20:48;99563.56;;;16.87;54.13
17311;BME280;8773;43.300;0.394;2023-05-21T06:23:15;99551.06;;;17.33;53.14
17311;BME280;8773;43.300;0.394;2023-05-21T06:25:42;99556.44;;;17.14;53.07
17311;BME280;8773;43.300;0.394;2023-05-21T06:28:10;99559.16;;;17.33;52.31
17311;BME280;8773;43.300;0.394;2023-05-21T06:30:39;99559.19;;;17.40;52.29
17311;BME280;8773;43.300;0.394;2023-05-21T06:33:06;99559.03;;;17.61;51.27
17311;BME280;8773;43.300;0.394;2023-05-21T06:35:34;99560.03;;;17.47;51.50
17311;BME280;8773;43.300;0.394;2023-05-21T06:38:02;99564.59;;;17.53;51.81
17311;BME280;8773;43.300;0.394;2023-05-21T06:40:29;99564.00;;;17.64;51.57
17311;BME280;8773;43.300;0.394;2023-05-21T06:42:57;99564.84;;;18.11;51.26
17311;BME280;8773;43.300;0.394;2023-05-21T06:45:24;99558.59;;;18.44;50.11
17311;BME280;8773;43.300;0.394;2023-05-21T06:47:53;99556.94;;;19.07;48.67
17311;BME280;8773;43.300;0.394;2023-05-21T06:50:21;99563.25;;;19.39;47.33
17311;BME280;8773;43.300;0.394;2023-05-21T06:52:48;99552.59;;;19.76;48.04
17311;BME280;8773;43.300;0.394;2023-05-21T06:55:16;99552.44;;;19.71;46.75
17311;BME280;8773;43.300;0.394;2023-05-21T06:57:43;99555.22;;;20.14;47.77
17311;BME280;8773;43.300;0.394;2023-05-21T07:00:11;99561.72;;;20.92;45.83
17311;BME280;8773;43.300;0.394;2023-05-21T07:02:39;99558.84;;;21.06;45.04
17311;BME280;8773;43.300;0.394;2023-05-21T07:05:08;99555.28;;;21.35;44.47
17311;BME280;8773;43.300;0.394;2023-05-21T07:07:36;99556.50;;;21.51;43.69
17311;BME280;8773;43.300;0.394;2023-05-21T07:10:04;99555.00;;;22.08;42.79
17311;BME280;8773;43.300;0.394;2023-05-21T07:12:32;99552.88;;;22.69;42.46
17311;BME280;8773;43.300;0.394;2023-05-21T07:14:59;99545.03;;;23.24;40.38
17311;BME280;8773;43.300;0.394;2023-05-21T07:17:27;99555.00;;;23.47;39.81
17311;BME280;8773;43.300;0.394;2023-05-21T07:19:54;99542.22;;;23.92;38.52
17311;BME280;8773;43.300;0.394;2023-05-21T07:22:23;99540.34;;;23.19;40.25
17311;BME280;8773;43.300;0.394;2023-05-21T07:24:54;99540.88;;;23.95;39.50
17311;BME280;8773;43.300;0.394;2023-05-21T07:27:21;99538.72;;;23.80;38.36
17311;BME280;8773;43.300;0.394;2023-05-21T07:29:52;99540.69;;;24.35;38.31
17311;BME280;8773;43.300;0.394;2023-05-21T07:32:19;99534.34;;;25.12;36.91
17311;BME280;8773;43.300;0.394;2023-05-21T07:34:46;99548.94;;;24.79;35.93
17311;BME280;8773;43.300;0.394;2023-05-21T07:37:14;99534.81;;;24.10;37.14
17311;BME280;8773;43.300;0.394;2023-05-21T07:39:43;99537.88;;;23.63;38.54
17311;BME280;8773;43.300;0.394;2023-05-21T07:42:10;99538.25;;;23.10;39.98
17311;BME280;8773;43.300;0.394;2023-05-21T07:44:38;99543.19;;;22.49;40.47
17311;BME280;8773;43.300;0.394;2023-05-21T07:47:05;99543.44;;;22.13;41.09
17311;BME280;8773;43.300;0.394;2023-05-21T07:49:32;99544.00;;;21.80;42.42
17311;BME280;8773;43.300;0.394;2023-05-21T07:52:00;99554.53;;;21.58;43.53
17311;BME280;8773;43.300;0.394;2023-05-21T07:54:27;99552.38;;;21.18;43.60
17311;BME280;8773;43.300;0.394;2023-05-21T07:56:56;99565.00;;;20.76;44.84
17311;BME280;8773;43.300;0.394;2023-05-21T07:59:23;99565.88;;;20.33;45.98
17311;BME280;8773;43.300;0.394;2023-05-21T08:01:51;99558.56;;;20.09;47.15
17311;BME280;8773;43.300;0.394;2023-05-21T08:04:18;99558.84;;;20.26;46.10
17311;BME280;8773;43.300;0.394;2023-05-21T08:06:46;99559.34;;;20.59;45.77
17311;BME280;8773;43.300;0.394;2023-05-21T08:09:14;99555.50;;;20.67;45.50
17311;BME280;8773;43.300;0.394;2023-05-21T08:11:42;99547.88;;;21.12;44.83
17311;BME280;8773;43.300;0.394;2023-05-21T08:14:10;99541.06;;;20.91;44.90
17311;BME280;8773;43.300;0.394;2023-05-21T08:16:38;99554.00;;;20.53;46.23
17311;BME280;8773;43.300;0.394;2023-05-21T08:19:05;99544.69;;;19.99;46.46
17311;BME280;8773;43.300;0.394;2023-05-21T08:22:11;99551.19;;;19.91;47.63
17311;BME280;8773;43.300;0.394;2023-05-21T08:24:56;99537.00;;;19.71;48.72
17311;BME280;8773;43.300;0.394;2023-05-21T08:27:26;99537.69;;;20.16;47.03
17311;BME280;8773;43.300;0.394;2023-05-21T08:29:55;99537.13;;;20.51;46.21
17311;BME280;8773;43.300;0.394;2023-05-21T08:32:22;99544.75;;;20.60;45.76
17311;BME280;8773;43.300;0.394;2023-05-21T08:34:50;99550.44;;;20.71;45.20
17311;BME280;8773;43.300;0.394;2023-05-21T08:37:19;99544.94;;;20.41;46.53
17311;BME280;8773;43.300;0.394;2023-05-21T08:39:46;99543.91;;;20.60;46.35
17311;BME280;8773;43.300;0.394;2023-05-21T08:42:23;99533.78;;;20.85;45.14
17311;BME280;8773;43.300;0.394;2023-05-21T08:45:05;99548.56;;;20.53;45.34
17311;BME280;8773;43.300;0.394;2023-05-21T08:47:34;99537.53;;;20.29;46.04
17311;BME280;8773;43.300;0.394;2023-05-21T08:50:03;99545.84;;;20.71;45.79
17311;BME280;8773;43.300;0.394;2023-05-21T08:52:30;99538.53;;;20.35;45.50
17311;BME280;8773;43.300;0.394;2023-05-21T08:54:58;99533.25;;;20.77;44.59
17311;BME280;8773;43.300;0.394;2023-05-21T08:57:27;99532.00;;;20.61;44.56
17311;BME280;8773;43.300;0.394;2023-05-21T08:59:54;99528.78;;;20.27;45.44
17311;BME280;8773;43.300;0.394;2023-05-21T09:02:23;99529.22;;;19.50;47.79
17311;BME280;8773;43.300;0.394;2023-05-21T09:04:52;99524.94;;;19.92;47.31
17311;BME280;8773;43.300;0.394;2023-05-21T09:07:19;99517.13;;;20.82;46.57
17311;BME280;8773;43.300;0.394;2023-05-21T09:09:51;99520.16;;;21.22;44.31
17311;BME280;8773;43.300;0.394;2023-05-21T09:12:20;99525.31;;;21.12;44.31
17311;BME280;8773;43.300;0.394;2023-05-21T09:14:48;99533.72;;;20.55;45.54
17311;BME280;8773;43.300;0.394;2023-05-21T09:17:16;99529.63;;;20.28;46.28
17311;BME280;8773;43.300;0.394;2023-05-21T09:20:07;99529.94;;;20.38;46.62
17311;BME280;8773;43.300;0.394;2023-05-21T09:22:35;99516.31;;;20.45;45.93
17311;BME280;8773;43.300;0.394;2023-05-21T09:25:05;99522.72;;;20.07;46.33
17311;BME280;8773;43.300;0.394;2023-05-21T09:28:10;99525.25;;;20.27;45.34
17311;BME280;8773;43.300;0.394;2023-05-21T09:30:43;99519.91;;;20.75;45.15
17311;BME280;8773;43.300;0.394;2023-05-21T09:33:11;99517.56;;;20.79;44.43
17311;BME280;8773;43.300;0.394;2023-05-21T09:35:45;99514.47;;;21.42;44.29
17311;BME280;8773;43.300;0.394;2023-05-21T09:38:12;99517.25;;;21.65;43.51
17311;BME280;8773;43.300;0.394;2023-05-21T09:40:43;99520.72;;;21.42;43.57
17311;BME280;8773;43.300;0.394;2023-05-21T09:43:13;99519.88;;;21.12;43.99
17311;BME280;8773;43.300;0.394;2023-05-21T09:45:49;99527.03;;;20.94;44.35
17311;BME280;8773;43.300;0.394;2023-05-21T09:48:31;99537.06;;;20.57;44.49
17311;BME280;8773;43.300;0.394;2023-05-21T09:51:11;99528.09;;;20.57;44.74
17311;BME280;8773;43.300;0.394;2023-05-21T09:53:43;99528.50;;;20.36;44.47
17311;BME280;8773;43.300;0.394;2023-05-21T09:56:10;99523.97;;;20.66;44.01
17311;BME280;8773;43.300;0.394;2023-05-21T09:58:38;99527.09;;;20.51;44.64
17311;BME280;8773;43.300;0.394;2023-05-21T10:01:06;99530.16;;;20.37;45.38
17311;BME280;8773;43.300;0.394;2023-05-21T10:03:37;99525.03;;;20.83;44.33
17311;BME280;8773;43.300;0.394;2023-05-21T10:06:08;99520.91;;;21.29;44.86
17311;BME280;8773;43.300;0.394;2023-05-21T10:08:41;99526.88;;;21.91;42.89
17311;BME280;8773;43.300;0.394;2023-05-21T10:11:11;99520.91;;;21.29;42.49
17311;BME280;8773;43.300;0.394;2023-05-21T10:13:42;99527.84;;;20.77;43.11
17311;BME280;8773;43.300;0.394;2023-05-21T10:16:11;99532.75;;;20.50;44.83
17311;BME280;8773;43.300;0.394;2023-05-21T10:18:41;99529.84;;;21.18;40.94
17311;BME280;8773;43.300;0.394;2023-05-21T10:21:10;99525.81;;;21.20;41.19
17311;BME280;8773;43.300;0.394;2023-05-21T10:23:37;99517.41;;;21.93;41.31
17311;BME280;8773;43.300;0.394;2023-05-21T10:26:06;99518.22;;;22.64;39.08
17311;BME280;8773;43.300;0.394;2023-05-21T10:28:34;99510.31;;;22.16;39.40
17311;BME280;8773;43.300;0.394;2023-05-21T10:31:02;99509.44;;;22.74;39.96
17311;BME280;8773;43.300;0.394;2023-05-21T10:33:30;99505.13;;;23.46;39.13
17311;BME280;8773;43.300;0.394;2023-05-21T10:35:58;99504.63;;;23.66;37.83
17311;BME280;8773;43.300;0.394;2023-05-21T10:38:28;99499.75;;;23.35;37.92
17311;BME280;8773;43.300;0.394;2023-05-21T10:40:56;99513.41;;;22.43;38.95
17311;BME280;8773;43.300;0.394;2023-05-21T10:43:33;99506.28;;;22.42;39.68
17311;BME280;8773;43.300;0.394;2023-05-21T10:46:15;99511.25;;;22.56;38.77
17311;BME280;8773;43.300;0.394;2023-05-21T10:48:59;99516.34;;;22.18;38.97
17311;BME280;8773;43.300;0.394;2023-05-21T10:51:38;99516.34;;;22.06;40.04
17311;BME280;8773;43.300;0.394;2023-05-21T10:54:26;99504.88;;;22.51;40.38
17311;BME280;8773;43.300;0.394;2023-05-21T10:57:08;99507.94;;;22.94;39.31
17311;BME280;8773;43.300;0.394;2023-05-21T10:59:42;99502.97;;;22.51;38.35
17311;BME280;8773;43.300;0.394;2023-05-21T11:02:13;99495.44;;;22.82;39.69
17311;BME280;8773;43.300;0.394;2023-05-21T11:04:43;99497.44;;;22.86;38.24
17311;BME280;8773;43.300;0.394;2023-05-21T11:07:11;99494.59;;;22.06;39.12
17311;BME280;8773;43.300;0.394;2023-05-21T11:09:40;99499.03;;;21.24;40.10
17311;BME280;8773;43.300;0.394;2023-05-21T11:12:07;99502.44;;;21.61;40.02
17311;BME280;8773;43.300;0.394;2023-05-21T11:14:37;99493.22;;;21.62;39.54
17311;BME280;8773;43.300;0.394;2023-05-21T11:17:10;99500.97;;;22.12;38.51
17311;BME280;8773;43.300;0.394;2023-05-21T11:19:38;99491.03;;;22.17;38.93
17311;BME280;8773;43.300;0.394;2023-05-21T11:22:07;99495.63;;;22.52;38.66
17311;BME280;8773;43.300;0.394;2023-05-21T11:24:41;99483.53;;;23.11;38.64
17311;BME280;8773;43.300;0.394;2023-05-21T11:27:08;99489.09;;;23.33;38.52
17311;BME280;8773;43.300;0.394;2023-05-21T11:29:40;99493.97;;;22.51;38.79
17311;BME280;8773;43.300;0.394;2023-05-21T11:32:09;99491.63;;;22.43;38.69
17311;BME280;8773;43.300;0.394;2023-05-21T11:34:38;99487.13;;;22.37;39.60
17311;BME280;8773;43.300;0.394;2023-05-21T11:37:31;99487.91;;;22.72;38.90
17311;BME280;8773;43.300;0.394;2023-05-21T11:40:18;99486.75;;;23.08;38.05
17311;BME280;8773;43.300;0.394;2023-05-21T11:42:50;99481.66;;;23.28;36.84
17311;BME280;8773;43.300;0.394;2023-05-21T11:45:19;99480.72;;;22.94;38.32
17311;BME280;8773;43.300;0.394;2023-05-21T11:47:47;99486.66;;;22.28;39.84
17311;BME280;8773;43.300;0.394;2023-05-21T11:50:16;99479.81;;;22.25;39.54
17311;BME280;8773;43.300;0.394;2023-05-21T11:52:44;99480.63;;;22.49;38.89
17311;BME280;8773;43.300;0.394;2023-05-21T11:55:12;99470.94;;;22.42;38.59
17311;BME280;8773;43.300;0.394;2023-05-21T11:57:42;99466.16;;;21.55;39.57
17311;BME280;8773;43.300;0.394;2023-05-21T12:00:13;99470.72;;;22.08;38.83
17311;BME280;8773;43.300;0.394;2023-05-21T12:02:45;99467.50;;;22.35;38.93
17311;BME280;8773;43.300;0.394;2023-05-21T12:05:13;99462.84;;;22.58;39.20
17311;BME280;8773;43.300;0.394;2023-05-21T12:07:41;99465.88;;;22.10;40.05
17311;BME280;8773;43.300;0.394;2023-05-21T12:10:10;99469.06;;;22.07;39.90
17311;BME280;8773;43.300;0.394;2023-05-21T12:12:37;99472.66;;;21.54;41.20
17311;BME280;8773;43.300;0.394;2023-05-21T12:15:23;99476.78;;;21.57;40.50
17311;BME280;8773;43.300;0.394;2023-05-21T12:17:51;99465.88;;;21.75;41.36
17311;BME280;8773;43.300;0.394;2023-05-21T12:20:18;99454.75;;;22.23;40.06
17311;BME280;8773;43.300;0.394;2023-05-21T12:22:48;99469.78;;;21.91;39.73
17311;BME280;8773;43.300;0.394;2023-05-21T12:25:17;99466.75;;;21.04;41.97
17311;BME280;8773;43.300;0.394;2023-05-21T12:27:45;99456.13;;;21.56;41.10
17311;BME280;8773;43.300;0.394;2023-05-21T12:30:12;99456.25;;;21.61;40.24
17311;BME280;8773;43.300;0.394;2023-05-21T12:32:42;99451.94;;;21.83;39.65
17311;BME280;8773;43.300;0.394;2023-05-21T12:35:19;99443.97;;;21.58;40.72
17311;BME280;8773;43.300;0.394;2023-05-21T12:37:47;99432.88;;;21.95;39.97
17311;BME280;8773;43.300;0.394;2023-05-21T12:40:15;99429.22;;;22.13;39.30
17311;BME280;8773;43.300;0.394;2023-05-21T12:42:43;99433.91;;;21.36;40.50
17311;BME280;8773;43.300;0.394;2023-05-21T12:45:11;99435.13;;;20.80;41.01
17311;BME280;8773;43.300;0.394;2023-05-21T12:47:39;99434.19;;;21.16;40.50
17311;BME280;8773;43.300;0.394;2023-05-21T12:50:09;99430.53;;;21.63;40.00
17311;BME280;8773;43.300;0.394;2023-05-21T12:52:38;99434.44;;;21.68;39.78
17311;BME280;8773;43.300;0.394;2023-05-21T12:55:07;99424.94;;;22.28;38.21
17311;BME280;8773;43.300;0.394;2023-05-21T12:57:36;99426.50;;;22.01;37.99
17311;BME280;8773;43.300;0.394;2023-05-21T13:00:05;99413.22;;;22.40;37.18
17311;BME280;8773;43.300;0.394;2023-05-21T13:02:34;99411.22;;;22.75;37.26
17311;BME280;8773;43.300;0.394;2023-05-21T13:05:06;99419.25;;;22.30;38.06
17311;BME280;8773;43.300;0.394;2023-05-21T13:07:37;99420.63;;;21.69;38.70
17311;BME280;8773;43.300;0.394;2023-05-21T13:10:06;99420.81;;;22.03;38.21
17311;BME280;8773;43.300;0.394;2023-05-21T13:12:34;99412.53;;;22.21;37.70
17311;BME280;8773;43.300;0.394;2023-05-21T13:15:03;99419.47;;;22.40;37.75
17311;BME280;8773;43.300;0.394;2023-05-21T13:17:30;99410.25;;;22.98;36.87
17311;BME280;8773;43.300;0.394;2023-05-21T13:20:06;99410.00;;;23.61;35.69